Time;durP1;ratioP1;P1;durP2;ratioP2;P2;SDS_P1;SDS_P2;PMS_P1;PMS_P2;Temp;Humidity;BMP_temperature;BMP_pressure;BME280_temperature;BME280_humidity;BME280_pressure;Samples;Min_cycle;Max_cycle;Signal;HPM_P1;HPM_P2
2022/02/20 00:00:22;;;;;;;;;;;24.00;42.40;;;;;;1506783;79;1941;-69
2022/02/20 00:02:24;;;;;;;;;;;24.10;42.60;;;;;;1506673;79;737;-69
2022/02/20 00:04:25;;;;;;;;;;;24.00;42.50;;;;;;1506371;79;1136;-68
2022/02/20 00:06:27;;;;;;;;;;;24.10;42.50;;;;;;1503663;79;775;-69
2022/02/20 00:08:29;;;;;;;;;;;24.10;42.50;;;;;;1503575;79;719;-68
2022/02/20 00:10:31;;;;;;;;;;;24.10;42.50;;;;;;1503776;79;710;-69
2022/02/20 00:12:33;;;;;;;;;;;24.10;42.70;;;;;;1503784;79;790;-71
2022/02/20 00:14:35;;;;;;;;;;;24.20;42.70;;;;;;1503565;79;1195;-68
2022/02/20 00:16:37;;;;;;;;;;;24.10;42.70;;;;;;1503666;79;731;-69
2022/02/20 00:18:39;;;;;;;;;;;24.10;42.70;;;;;;1503623;79;742;-71
2022/02/20 00:20:43;;;;;;;;;;;24.20;42.70;;;;;;1505849;79;1917;-69
2022/02/20 00:22:44;;;;;;;;;;;24.10;42.70;;;;;;1506627;79;1443;-69
2022/02/20 00:24:46;;;;;;;;;;;24.10;42.70;;;;;;1506508;79;1124;-69
2022/02/20 00:26:48;;;;;;;;;;;24.20;42.80;;;;;;1522546;77;759;-69
2022/02/20 00:28:50;;;;;;;;;;;24.10;42.80;;;;;;1525737;77;723;-70
2022/02/20 00:30:52;;;;;;;;;;;24.10;42.80;;;;;;1503585;79;746;-72
2022/02/20 00:32:56;;;;;;;;;;;24.10;42.80;;;;;;1503627;79;834;-68
2022/02/20 00:34:57;;;;;;;;;;;24.20;42.80;;;;;;1503474;79;1659;-72
2022/02/20 00:36:59;;;;;;;;;;;24.10;42.90;;;;;;1503321;79;658;-69
2022/02/20 00:39:01;;;;;;;;;;;24.20;42.80;;;;;;1503715;79;784;-69
2022/02/20 00:41:03;;;;;;;;;;;24.20;42.80;;;;;;1503512;79;1953;-70
2022/02/20 00:43:05;;;;;;;;;;;24.20;42.90;;;;;;1503685;79;779;-70
2022/02/20 00:45:07;;;;;;;;;;;24.20;43.00;;;;;;1503625;79;1161;-68
2022/02/20 00:47:09;;;;;;;;;;;24.20;42.80;;;;;;1505572;77;790;-68
2022/02/20 00:49:10;;;;;;;;;;;24.20;42.80;;;;;;1505986;78;725;-71
2022/02/20 00:51:12;;;;;;;;;;;24.20;42.80;;;;;;1505514;79;736;-70
2022/02/20 00:53:14;;;;;;;;;;;24.20;42.70;;;;;;1505518;79;730;-70
2022/02/20 00:55:16;;;;;;;;;;;24.20;42.70;;;;;;1501550;79;1106;-70
2022/02/20 00:57:20;;;;;;;;;;;24.20;42.80;;;;;;1505469;79;766;-69
2022/02/20 00:59:21;;;;;;;;;;;24.20;42.80;;;;;;1505786;79;1369;-69
2022/02/20 01:01:23;;;;;;;;;;;24.10;42.80;;;;;;1505926;77;1939;-69
2022/02/20 01:03:25;;;;;;;;;;;24.10;42.80;;;;;;1506279;77;781;-69
2022/02/20 01:05:27;;;;;;;;;;;24.10;42.80;;;;;;1506223;77;1159;-71
2022/02/20 01:07:29;;;;;;;;;;;24.20;42.80;;;;;;1505560;77;792;-70
2022/02/20 01:09:32;;;;;;;;;;;24.10;42.80;;;;;;1506182;77;770;-70
2022/02/20 01:11:33;;;;;;;;;;;24.10;42.80;;;;;;1506314;77;778;-70
2022/02/20 01:13:35;;;;;;;;;;;24.10;42.80;;;;;;1505841;77;1160;-70
2022/02/20 01:15:37;;;;;;;;;;;24.10;42.80;;;;;;1504839;79;784;-70
2022/02/20 01:17:39;;;;;;;;;;;24.10;42.80;;;;;;1505068;79;693;-70
2022/02/20 01:19:41;;;;;;;;;;;24.10;42.80;;;;;;1504958;77;788;-71
2022/02/20 01:21:43;;;;;;;;;;;24.10;42.70;;;;;;1507060;77;1950;-73
2022/02/20 01:23:45;;;;;;;;;;;24.10;42.80;;;;;;1503101;77;1133;-70
2022/02/20 01:25:47;;;;;;;;;;;24.20;42.80;;;;;;1503150;78;731;-70
2022/02/20 01:27:48;;;;;;;;;;;24.10;42.70;;;;;;1505861;79;794;-70
2022/02/20 01:29:50;;;;;;;;;;;24.20;42.70;;;;;;1505549;79;731;-70
2022/02/20 01:31:53;;;;;;;;;;;24.10;42.80;;;;;;1505581;78;793;-70
2022/02/20 01:33:55;;;;;;;;;;;24.00;42.60;;;;;;1505548;79;1153;-70
2022/02/20 01:35:57;;;;;;;;;;;24.00;42.60;;;;;;1501600;79;761;-69
2022/02/20 01:37:59;;;;;;;;;;;24.00;42.60;;;;;;1505350;79;777;-70
2022/02/20 01:40:01;;;;;;;;;;;24.00;42.60;;;;;;1505592;77;698;-70
2022/02/20 01:42:03;;;;;;;;;;;24.00;42.60;;;;;;1505583;79;1935;-70
2022/02/20 01:44:06;;;;;;;;;;;24.00;42.60;;;;;;1505594;79;1195;-69
2022/02/20 01:46:07;;;;;;;;;;;24.10;42.60;;;;;;1505429;79;733;-70
2022/02/20 01:48:09;;;;;;;;;;;24.10;42.70;;;;;;1505343;79;786;-70
2022/02/20 01:50:11;;;;;;;;;;;24.00;42.50;;;;;;1505412;78;783;-70
2022/02/20 01:52:14;;;;;;;;;;;24.00;42.50;;;;;;1505468;79;776;-70
2022/02/20 01:54:16;;;;;;;;;;;24.10;42.60;;;;;;1505546;79;1140;-68
2022/02/20 01:56:18;;;;;;;;;;;24.00;42.50;;;;;;1506428;77;795;-70
2022/02/20 01:58:20;;;;;;;;;;;24.00;42.50;;;;;;1505281;79;686;-71
2022/02/20 02:00:22;;;;;;;;;;;24.00;42.50;;;;;;1505566;79;1941;-71
2022/02/20 02:02:24;;;;;;;;;;;23.90;42.50;;;;;;1505471;79;709;-71
2022/02/20 02:04:26;;;;;;;;;;;24.00;42.50;;;;;;1505568;79;1197;-70
2022/02/20 02:06:29;;;;;;;;;;;24.00;42.50;;;;;;1504861;79;706;-71
2022/02/20 02:08:31;;;;;;;;;;;24.00;42.50;;;;;;1505489;79;755;-70
2022/02/20 02:10:33;;;;;;;;;;;24.00;42.50;;;;;;1505558;79;790;-70
2022/02/20 02:12:35;;;;;;;;;;;23.90;42.60;;;;;;1505562;79;753;-70
2022/02/20 02:14:53;;;;;;;;;;;24.00;42.50;;;;;;1504761;79;1125;-69
2022/02/20 02:16:57;;;;;;;;;;;24.00;42.50;;;;;;1505240;79;762;-70
2022/02/20 02:19:00;;;;;;;;;;;24.00;42.60;;;;;;1501974;79;912;-69
2022/02/20 02:21:02;;;;;;;;;;;24.00;42.60;;;;;;1505415;79;1926;-69
2022/02/20 02:23:04;;;;;;;;;;;24.00;42.60;;;;;;1505589;79;787;-69
2022/02/20 02:25:06;;;;;;;;;;;24.00;42.60;;;;;;1505467;79;1167;-69
2022/02/20 02:27:08;;;;;;;;;;;23.90;42.50;;;;;;1505488;79;786;-69
2022/02/20 02:29:10;;;;;;;;;;;24.00;42.60;;;;;;1503705;79;788;-70
2022/02/20 02:31:12;;;;;;;;;;;24.00;42.60;;;;;;1502437;79;777;-70
2022/02/20 02:33:27;;;;;;;;;;;24.00;42.50;;;;;;1505671;79;776;-70
2022/02/20 02:35:29;;;;;;;;;;;23.90;42.50;;;;;;1503539;79;718;-69
2022/02/20 02:37:30;;;;;;;;;;;23.90;42.60;;;;;;1503688;79;766;-70
2022/02/20 02:39:32;;;;;;;;;;;24.00;42.60;;;;;;1505591;79;726;-70
2022/02/20 02:41:34;;;;;;;;;;;24.00;42.60;;;;;;1518509;75;3018;-69
2022/02/20 02:43:36;;;;;;;;;;;24.00;42.60;;;;;;1564497;75;671;-70
2022/02/20 02:45:38;;;;;;;;;;;24.00;42.50;;;;;;1550460;75;675;-71
2022/02/20 02:47:40;;;;;;;;;;;24.00;42.50;;;;;;1582407;75;725;-70
2022/02/20 02:49:42;;;;;;;;;;;23.80;42.50;;;;;;1549574;76;1288;-70
2022/02/20 02:51:44;;;;;;;;;;;24.00;42.50;;;;;;1582372;74;1230;-69
2022/02/20 02:53:46;;;;;;;;;;;24.00;42.50;;;;;;1582442;75;776;-70
2022/02/20 02:55:48;;;;;;;;;;;23.90;42.50;;;;;;1582299;75;703;-69
2022/02/20 02:57:50;;;;;;;;;;;24.00;42.40;;;;;;1582180;75;703;-69
2022/02/20 02:59:52;;;;;;;;;;;24.00;42.50;;;;;;1565715;75;773;-69
2022/02/20 03:01:58;;;;;;;;;;;23.90;42.50;;;;;;1555492;75;1931;-67
2022/02/20 03:03:57;;;;;;;;;;;23.80;42.40;;;;;;1554856;76;1108;-70
2022/02/20 03:05:59;;;;;;;;;;;23.90;42.50;;;;;;1555718;76;773;-69
2022/02/20 03:08:01;;;;;;;;;;;23.90;42.40;;;;;;1555491;76;723;-70
2022/02/20 03:10:03;;;;;;;;;;;24.00;42.50;;;;;;1555529;76;699;-69
2022/02/20 03:12:05;;;;;;;;;;;23.90;42.40;;;;;;1555496;75;1143;-69
2022/02/20 03:14:08;;;;;;;;;;;23.90;42.40;;;;;;1555465;76;710;-69
2022/02/20 03:16:10;;;;;;;;;;;23.90;42.40;;;;;;1567327;75;767;-71
2022/02/20 03:18:12;;;;;;;;;;;23.90;42.40;;;;;;1566195;75;740;-70
2022/02/20 03:20:14;;;;;;;;;;;23.90;42.50;;;;;;1548181;76;719;-70
2022/02/20 03:22:15;;;;;;;;;;;23.90;42.50;;;;;;1555514;75;1935;-68
2022/02/20 03:24:17;;;;;;;;;;;23.90;42.50;;;;;;1555579;76;716;-70
2022/02/20 03:26:19;;;;;;;;;;;23.90;42.50;;;;;;1555627;76;742;-70
2022/02/20 03:28:21;;;;;;;;;;;23.90;42.50;;;;;;1555421;76;702;-70
2022/02/20 03:30:23;;;;;;;;;;;23.90;42.50;;;;;;1565147;75;703;-70
2022/02/20 03:32:25;;;;;;;;;;;23.90;42.50;;;;;;1582288;74;1181;-70
2022/02/20 03:34:27;;;;;;;;;;;23.90;42.50;;;;;;1568422;75;723;-69
2022/02/20 03:36:31;;;;;;;;;;;23.90;42.50;;;;;;1544866;76;739;-69
2022/02/20 03:38:32;;;;;;;;;;;24.00;42.50;;;;;;1553747;76;1582;-69
2022/02/20 03:40:34;;;;;;;;;;;23.90;42.50;;;;;;1555635;76;780;-70
2022/02/20 03:42:36;;;;;;;;;;;24.00;42.30;;;;;;1555477;76;1948;-71
2022/02/20 03:44:38;;;;;;;;;;;24.00;42.30;;;;;;1555474;76;786;-71
2022/02/20 03:46:40;;;;;;;;;;;24.20;42.30;;;;;;1549328;76;816;-71
2022/02/20 03:48:42;;;;;;;;;;;24.20;42.20;;;;;;1537881;77;719;-71
2022/02/20 03:50:44;;;;;;;;;;;24.10;42.10;;;;;;1535270;76;740;-70
2022/02/20 03:52:46;;;;;;;;;;;24.20;42.00;;;;;;1529467;76;1131;-70
2022/02/20 03:54:47;;;;;;;;;;;24.30;42.00;;;;;;1529510;76;699;-70
2022/02/20 03:56:49;;;;;;;;;;;24.30;41.90;;;;;;1529403;78;762;-70
2022/02/20 03:58:51;;;;;;;;;;;24.30;41.80;;;;;;1532423;76;780;-69
2022/02/20 04:00:53;;;;;;;;;;;24.30;41.80;;;;;;1555695;76;739;-69
2022/02/20 04:02:55;;;;;;;;;;;24.40;41.80;;;;;;1555483;75;1947;-70
2022/02/20 04:04:57;;;;;;;;;;;24.30;41.80;;;;;;1555595;76;728;-67
2022/02/20 04:06:59;;;;;;;;;;;24.30;41.80;;;;;;1555477;76;695;-70
2022/02/20 04:09:01;;;;;;;;;;;24.30;41.80;;;;;;1555384;76;605;-70
2022/02/20 04:11:03;;;;;;;;;;;24.30;41.80;;;;;;1555352;75;1129;-69
2022/02/20 04:13:05;;;;;;;;;;;24.30;41.80;;;;;;1553586;76;716;-69
2022/02/20 04:15:07;;;;;;;;;;;24.30;41.90;;;;;;1554402;76;719;-69
2022/02/20 04:17:09;;;;;;;;;;;24.30;42.00;;;;;;1555186;76;742;-70
2022/02/20 04:19:11;;;;;;;;;;;24.30;41.90;;;;;;1555180;76;786;-70
2022/02/20 04:21:13;;;;;;;;;;;24.30;42.00;;;;;;1555477;76;1938;-70
2022/02/20 04:23:15;;;;;;;;;;;24.30;42.00;;;;;;1555645;76;781;-69
2022/02/20 04:25:16;;;;;;;;;;;24.30;42.00;;;;;;1555196;76;672;-72
2022/02/20 04:27:18;;;;;;;;;;;24.30;42.00;;;;;;1546954;76;723;-73
2022/02/20 04:29:20;;;;;;;;;;;24.20;41.90;;;;;;1551091;76;724;-71
2022/02/20 04:31:22;;;;;;;;;;;24.30;42.00;;;;;;1533264;77;1223;-71
2022/02/20 04:33:24;;;;;;;;;;;24.30;42.00;;;;;;1533378;77;688;-71
2022/02/20 04:35:26;;;;;;;;;;;24.30;42.00;;;;;;1533291;77;632;-70
2022/02/20 04:37:28;;;;;;;;;;;24.30;41.90;;;;;;1533139;77;711;-71
2022/02/20 04:39:30;;;;;;;;;;;24.30;42.00;;;;;;1533290;77;785;-72
2022/02/20 04:41:31;;;;;;;;;;;24.30;42.10;;;;;;1533233;76;1936;-72
2022/02/20 04:43:33;;;;;;;;;;;24.30;42.10;;;;;;1523437;76;739;-72
2022/02/20 04:45:35;;;;;;;;;;;24.20;41.90;;;;;;1530195;78;716;-72
2022/02/20 04:47:37;;;;;;;;;;;24.20;42.00;;;;;;1530355;78;743;-72
2022/02/20 04:49:39;;;;;;;;;;;24.30;42.10;;;;;;1526608;78;704;-71
2022/02/20 04:51:41;;;;;;;;;;;24.20;42.10;;;;;;1505250;79;1395;-71
2022/02/20 04:53:43;;;;;;;;;;;24.20;42.00;;;;;;1525153;78;805;-71
2022/02/20 04:55:45;;;;;;;;;;;24.20;42.00;;;;;;1530107;77;772;-71
2022/02/20 04:57:46;;;;;;;;;;;24.20;41.90;;;;;;1527949;77;700;-71
2022/02/20 04:59:55;;;;;;;;;;;24.30;42.00;;;;;;1528346;77;747;-72
2022/02/20 05:01:52;;;;;;;;;;;24.30;42.00;;;;;;1525038;76;1922;-70
2022/02/20 05:03:54;;;;;;;;;;;24.30;41.90;;;;;;1530093;77;735;-70
2022/02/20 05:05:56;;;;;;;;;;;24.30;41.80;;;;;;1529941;77;712;-67
2022/02/20 05:07:57;;;;;;;;;;;24.30;41.80;;;;;;1528107;77;761;-70
2022/02/20 05:09:59;;;;;;;;;;;24.30;41.70;;;;;;1530211;77;712;-70
2022/02/20 05:12:01;;;;;;;;;;;24.40;41.60;;;;;;1530199;76;1139;-69
2022/02/20 05:14:03;;;;;;;;;;;24.30;41.50;;;;;;1531386;76;724;-72
2022/02/20 05:16:05;;;;;;;;;;;24.30;41.60;;;;;;1529942;77;727;-70
2022/02/20 05:18:07;;;;;;;;;;;24.40;41.60;;;;;;1530101;77;752;-71
2022/02/20 05:20:09;;;;;;;;;;;24.40;41.50;;;;;;1528025;77;744;-70
2022/02/20 05:22:11;;;;;;;;;;;24.30;41.50;;;;;;1530188;76;1940;-70
2022/02/20 05:24:13;;;;;;;;;;;24.30;41.50;;;;;;1527327;78;709;-71
2022/02/20 05:26:15;;;;;;;;;;;24.40;41.50;;;;;;1524538;78;817;-70
2022/02/20 05:28:17;;;;;;;;;;;24.40;41.50;;;;;;1524582;78;703;-70
2022/02/20 05:30:20;;;;;;;;;;;24.40;41.50;;;;;;1527003;78;696;-70
2022/02/20 05:32:25;;;;;;;;;;;24.40;41.40;;;;;;1527371;76;1080;-71
2022/02/20 05:34:27;;;;;;;;;;;24.40;41.40;;;;;;1524492;78;922;-70
2022/02/20 05:36:29;;;;;;;;;;;24.40;41.30;;;;;;1527297;78;757;-70
2022/02/20 05:38:31;;;;;;;;;;;24.30;41.30;;;;;;1524463;78;734;-72
2022/02/20 05:40:33;;;;;;;;;;;24.30;41.40;;;;;;1529728;78;729;-69
2022/02/20 05:42:35;;;;;;;;;;;24.30;41.40;;;;;;1526215;76;1934;-69
2022/02/20 05:44:36;;;;;;;;;;;24.50;41.50;;;;;;1527292;78;782;-69
2022/02/20 05:46:38;;;;;;;;;;;24.50;41.40;;;;;;1514895;78;718;-70
2022/02/20 05:48:40;;;;;;;;;;;24.50;41.20;;;;;;1529683;78;712;-68
2022/02/20 05:50:42;;;;;;;;;;;24.50;41.30;;;;;;1518574;78;702;-69
2022/02/20 05:52:44;;;;;;;;;;;24.50;41.30;;;;;;1529361;76;1163;-69
2022/02/20 05:54:46;;;;;;;;;;;24.50;41.10;;;;;;1529517;77;730;-70
2022/02/20 05:56:49;;;;;;;;;;;24.60;41.00;;;;;;1528807;78;733;-70
2022/02/20 05:58:51;;;;;;;;;;;24.60;41.00;;;;;;1524063;78;725;-70
2022/02/20 06:00:53;;;;;;;;;;;24.60;41.00;;;;;;1529381;77;805;-71
2022/02/20 06:02:55;;;;;;;;;;;24.60;41.00;;;;;;1528987;76;1950;-70
2022/02/20 06:04:57;;;;;;;;;;;24.60;41.00;;;;;;1528717;78;772;-71
2022/02/20 06:06:59;;;;;;;;;;;24.60;41.00;;;;;;1526120;77;796;-70
2022/02/20 06:09:01;;;;;;;;;;;24.60;41.00;;;;;;1529682;76;696;-67
2022/02/20 06:11:03;;;;;;;;;;;24.50;40.90;;;;;;1528380;76;1138;-70
2022/02/20 06:13:05;;;;;;;;;;;24.60;40.90;;;;;;1524284;78;720;-69
2022/02/20 06:15:07;;;;;;;;;;;24.70;40.90;;;;;;1528463;77;700;-70
2022/02/20 06:17:09;;;;;;;;;;;24.60;40.80;;;;;;1529147;77;651;-71
2022/02/20 06:19:11;;;;;;;;;;;24.60;40.80;;;;;;1529050;77;743;-70
2022/02/20 06:21:13;;;;;;;;;;;24.70;41.00;;;;;;1528471;76;1141;-69
2022/02/20 06:23:15;;;;;;;;;;;24.70;40.90;;;;;;1527492;78;1930;-70
2022/02/20 06:25:17;;;;;;;;;;;24.60;40.70;;;;;;1522425;78;887;-70
2022/02/20 06:27:18;;;;;;;;;;;24.60;40.70;;;;;;1521687;78;789;-69
2022/02/20 06:29:20;;;;;;;;;;;24.50;40.70;;;;;;1522518;78;786;-70
2022/02/20 06:31:22;;;;;;;;;;;24.70;40.80;;;;;;1530101;78;1123;-70
2022/02/20 06:33:24;;;;;;;;;;;24.60;40.70;;;;;;1530076;78;683;-71
2022/02/20 06:35:26;;;;;;;;;;;24.60;40.70;;;;;;1530002;78;713;-71
2022/02/20 06:37:28;;;;;;;;;;;24.60;40.70;;;;;;1529945;78;798;-71
2022/02/20 06:39:32;;;;;;;;;;;24.70;40.80;;;;;;1529813;78;761;-70
2022/02/20 06:41:33;;;;;;;;;;;24.60;40.70;;;;;;1518755;78;1154;-70
2022/02/20 06:43:35;;;;;;;;;;;24.60;40.70;;;;;;1528807;76;1932;-70
2022/02/20 06:45:37;;;;;;;;;;;24.60;40.80;;;;;;1528809;78;714;-70
2022/02/20 06:47:39;;;;;;;;;;;24.50;40.90;;;;;;1530286;78;794;-71
2022/02/20 06:49:41;;;;;;;;;;;24.60;40.80;;;;;;1529064;78;736;-74
2022/02/20 06:51:43;;;;;;;;;;;24.60;40.90;;;;;;1528938;76;1162;-70
2022/02/20 06:53:44;;;;;;;;;;;24.60;40.90;;;;;;1529185;78;742;-70
2022/02/20 06:55:46;;;;;;;;;;;24.60;40.90;;;;;;1529190;78;727;-70
2022/02/20 06:57:48;;;;;;;;;;;24.60;40.80;;;;;;1529121;78;712;-70
2022/02/20 06:59:50;;;;;;;;;;;24.70;41.00;;;;;;1527080;78;710;-70
2022/02/20 07:01:52;;;;;;;;;;;24.60;41.00;;;;;;1524894;77;1139;-71
2022/02/20 07:03:54;;;;;;;;;;;24.60;41.00;;;;;;1524992;78;1933;-70
2022/02/20 07:05:56;;;;;;;;;;;24.60;41.00;;;;;;1524994;78;725;-71
2022/02/20 07:07:59;;;;;;;;;;;24.60;41.00;;;;;;1524904;78;802;-72
2022/02/20 07:10:03;;;;;;;;;;;24.60;41.00;;;;;;1529556;78;718;-70
2022/02/20 07:12:05;;;;;;;;;;;24.70;41.00;;;;;;1530072;76;1198;-71
2022/02/20 07:14:07;;;;;;;;;;;24.60;41.00;;;;;;1530311;78;734;-70
2022/02/20 07:16:08;;;;;;;;;;;24.60;41.00;;;;;;1530372;78;713;-71
2022/02/20 07:18:10;;;;;;;;;;;24.60;40.90;;;;;;1525470;78;744;-70
2022/02/20 07:20:12;;;;;;;;;;;24.60;41.00;;;;;;1528028;78;736;-70
2022/02/20 07:22:14;;;;;;;;;;;24.60;40.90;;;;;;1530503;76;1953;-70
2022/02/20 07:24:16;;;;;;;;;;;24.60;40.80;;;;;;1530376;78;690;-70
2022/02/20 07:26:18;;;;;;;;;;;24.60;40.80;;;;;;1530368;78;721;-70
2022/02/20 07:28:21;;;;;;;;;;;24.70;41.00;;;;;;1530420;78;701;-70
2022/02/20 07:30:23;;;;;;;;;;;24.60;40.90;;;;;;1525652;78;716;-69
2022/02/20 07:32:25;;;;;;;;;;;24.70;41.00;;;;;;1524961;77;1127;-70
2022/02/20 07:34:27;;;;;;;;;;;24.60;40.80;;;;;;1524909;78;712;-70
2022/02/20 07:36:29;;;;;;;;;;;24.70;40.90;;;;;;1525927;78;737;-70
2022/02/20 07:38:31;;;;;;;;;;;24.60;40.70;;;;;;1530499;78;778;-71
2022/02/20 07:40:34;;;;;;;;;;;24.60;40.70;;;;;;1530292;78;796;-69
2022/02/20 07:42:36;;;;;;;;;;;24.70;40.90;;;;;;1527761;76;1944;-71
2022/02/20 07:44:38;;;;;;;;;;;24.60;40.90;;;;;;1530496;78;708;-71
2022/02/20 07:46:39;;;;;;;;;;;24.60;40.90;;;;;;1530318;78;707;-71
2022/02/20 07:48:41;;;;;;;;;;;24.60;41.00;;;;;;1530444;78;720;-70
2022/02/20 07:50:43;;;;;;;;;;;24.60;41.10;;;;;;1518330;78;695;-71
2022/02/20 07:52:46;;;;;;;;;;;24.70;41.10;;;;;;1512277;79;1138;-70
2022/02/20 07:54:48;;;;;;;;;;;24.70;40.90;;;;;;1512251;78;717;-70
2022/02/20 07:56:50;;;;;;;;;;;24.70;40.90;;;;;;1512245;78;730;-69
2022/02/20 07:58:52;;;;;;;;;;;24.70;40.70;;;;;;1527684;78;718;-70
2022/02/20 08:00:54;;;;;;;;;;;24.70;40.90;;;;;;1530460;78;712;-72
2022/02/20 08:02:58;;;;;;;;;;;24.70;41.00;;;;;;1530289;76;1948;-69
2022/02/20 08:05:00;;;;;;;;;;;24.70;41.00;;;;;;1525632;78;934;-70
2022/02/20 08:07:04;;;;;;;;;;;24.70;41.00;;;;;;1525927;78;748;-70
2022/02/20 08:09:05;;;;;;;;;;;24.70;41.00;;;;;;1518812;78;1091;-69
2022/02/20 08:11:07;;;;;;;;;;;24.70;41.00;;;;;;1523078;76;1126;-69
2022/02/20 08:13:09;;;;;;;;;;;24.70;41.00;;;;;;1522241;78;760;-68
2022/02/20 08:15:11;;;;;;;;;;;24.70;41.00;;;;;;1522240;78;744;-70
2022/02/20 08:17:13;;;;;;;;;;;24.70;41.10;;;;;;1505422;79;719;-71
2022/02/20 08:19:15;;;;;;;;;;;24.70;41.10;;;;;;1507504;78;764;-70
2022/02/20 08:21:17;;;;;;;;;;;24.70;41.10;;;;;;1530390;76;1126;-70
2022/02/20 08:23:19;;;;;;;;;;;24.70;41.10;;;;;;1530377;78;1933;-73
2022/02/20 08:25:20;;;;;;;;;;;24.70;41.20;;;;;;1530430;78;696;-69
2022/02/20 08:27:22;;;;;;;;;;;24.70;41.20;;;;;;1530308;78;723;-70
2022/02/20 08:29:24;;;;;;;;;;;24.70;41.30;;;;;;1530225;78;712;-71
2022/02/20 08:31:26;;;;;;;;;;;24.80;41.10;;;;;;1530358;78;1148;-71
2022/02/20 08:33:28;;;;;;;;;;;24.90;40.90;;;;;;1530502;78;740;-70
2022/02/20 08:35:30;;;;;;;;;;;25.00;40.70;;;;;;1530347;78;678;-71
2022/02/20 08:37:32;;;;;;;;;;;25.00;40.50;;;;;;1530369;78;786;-71
2022/02/20 08:39:34;;;;;;;;;;;25.00;40.40;;;;;;1530375;78;680;-72
2022/02/20 08:41:36;;;;;;;;;;;25.00;40.30;;;;;;1535819;73;2098;-72
2022/02/20 08:43:38;;;;;;;;;;;25.00;40.20;;;;;;1604212;74;1894;-74
2022/02/20 08:45:40;;;;;;;;;;;25.00;40.20;;;;;;1602983;74;739;-73
2022/02/20 08:47:42;;;;;;;;;;;25.00;40.20;;;;;;1604324;74;707;-71
2022/02/20 08:49:44;;;;;;;;;;;25.00;40.10;;;;;;1601866;73;709;-72
2022/02/20 08:51:46;;;;;;;;;;;25.10;40.00;;;;;;1597258;74;1202;-71
2022/02/20 08:53:48;;;;;;;;;;;25.10;40.00;;;;;;1576535;74;797;-71
2022/02/20 08:55:50;;;;;;;;;;;25.00;39.90;;;;;;1576347;75;744;-71
2022/02/20 08:57:51;;;;;;;;;;;25.00;39.90;;;;;;1578279;75;760;-71
2022/02/20 08:59:55;;;;;;;;;;;25.10;39.90;;;;;;1543104;75;729;-71
2022/02/20 09:01:57;;;;;;;;;;;25.00;39.90;;;;;;1552023;75;1156;-71
2022/02/20 09:04:02;;;;;;;;;;;25.10;39.90;;;;;;1545230;77;1951;-71
2022/02/20 09:06:02;;;;;;;;;;;25.00;39.90;;;;;;1631623;72;1459;-71
2022/02/20 09:08:04;;;;;;;;;;;25.00;39.80;;;;;;1631964;73;704;-71
2022/02/20 09:10:08;;;;;;;;;;;25.00;39.80;;;;;;1630928;73;741;-71
2022/02/20 09:12:10;;;;;;;;;;;25.00;39.80;;;;;;1631867;71;1158;-73
2022/02/20 09:14:12;;;;;;;;;;;25.00;39.80;;;;;;1623088;73;733;-74
2022/02/20 09:16:13;;;;;;;;;;;25.00;39.80;;;;;;1631834;73;737;-71
2022/02/20 09:18:15;;;;;;;;;;;25.00;39.70;;;;;;1627134;73;721;-71
2022/02/20 09:20:17;;;;;;;;;;;25.10;39.80;;;;;;1602152;73;801;-72
2022/02/20 09:22:19;;;;;;;;;;;25.00;39.70;;;;;;1603306;73;1115;-71
2022/02/20 09:24:21;;;;;;;;;;;25.00;39.70;;;;;;1609521;73;1937;-72
2022/02/20 09:26:23;;;;;;;;;;;25.00;39.80;;;;;;1597426;73;644;-71
2022/02/20 09:28:25;;;;;;;;;;;25.00;39.70;;;;;;1620841;73;728;-71
2022/02/20 09:30:27;;;;;;;;;;;25.00;39.80;;;;;;1626527;73;882;-74
2022/02/20 09:32:28;;;;;;;;;;;25.00;39.80;;;;;;1631920;71;1112;-72
2022/02/20 09:34:30;;;;;;;;;;;25.00;39.70;;;;;;1631889;73;782;-72
2022/02/20 09:36:32;;;;;;;;;;;25.00;39.70;;;;;;1631975;73;795;-75
2022/02/20 09:38:37;;;;;;;;;;;25.00;39.70;;;;;;1624611;73;779;-76
2022/02/20 09:40:39;;;;;;;;;;;25.00;39.90;;;;;;1631901;73;753;-76
2022/02/20 09:42:41;;;;;;;;;;;25.00;39.80;;;;;;1623684;71;1187;-74
2022/02/20 09:44:44;;;;;;;;;;;25.00;39.70;;;;;;1629085;73;1935;-72
2022/02/20 09:46:46;;;;;;;;;;;25.00;39.70;;;;;;1615029;73;715;-70
2022/02/20 09:48:50;;;;;;;;;;;24.90;39.70;;;;;;1596347;73;781;-71
2022/02/20 09:50:51;;;;;;;;;;;24.90;39.40;;;;;;1605539;73;1824;-72
2022/02/20 09:52:53;;;;;;;;;;;24.80;39.10;;;;;;1610962;72;1124;-73
2022/02/20 09:54:55;;;;;;;;;;;24.80;39.00;;;;;;1614111;73;754;-74
2022/02/20 09:56:57;;;;;;;;;;;24.80;38.90;;;;;;1604863;73;792;-71
2022/02/20 09:58:59;;;;;;;;;;;24.80;38.80;;;;;;1609692;72;786;-73
2022/02/20 10:01:04;;;;;;;;;;;24.80;38.80;;;;;;1609260;72;778;-75
2022/02/20 10:03:07;;;;;;;;;;;24.80;38.70;;;;;;1602792;72;1100;-72
2022/02/20 10:05:16;;;;;;;;;;;24.70;38.70;;;;;;1612205;73;1947;-72
2022/02/20 10:07:25;;;;;;;;;;;24.80;38.50;;;;;;1604280;73;773;-73
2022/02/20 10:09:27;;;;;;;;;;;24.70;38.50;;;;;;1604511;73;688;-71
2022/02/20 10:11:29;;;;;;;;;;;24.80;37.60;;;;;;1613855;72;1141;-72
2022/02/20 10:13:31;;;;;;;;;;;24.60;36.40;;;;;;1615778;73;772;-72
2022/02/20 10:15:43;;;;;;;;;;;24.50;37.00;;;;;;1605586;73;780;-74
2022/02/20 10:17:42;;;;;;;;;;;24.50;37.10;;;;;;1598482;73;1529;-72
2022/02/20 10:19:54;;;;;;;;;;;24.40;36.50;;;;;;1605368;73;700;-73
2022/02/20 10:21:55;;;;;;;;;;;24.40;36.30;;;;;;1607137;73;1140;-72
2022/02/20 10:23:59;;;;;;;;;;;24.30;36.50;;;;;;1610790;73;1933;-72
2022/02/20 10:26:02;;;;;;;;;;;24.30;36.40;;;;;;1613431;73;1790;-72
2022/02/20 10:28:05;;;;;;;;;;;24.30;36.50;;;;;;1601260;73;1018;-71
2022/02/20 10:30:10;;;;;;;;;;;24.30;36.30;;;;;;1604435;73;810;-72
2022/02/20 10:32:12;;;;;;;;;;;24.30;36.00;;;;;;1591347;73;1173;-72
2022/02/20 10:34:21;;;;;;;;;;;24.30;36.10;;;;;;1595754;74;1207;-72
2022/02/20 10:36:24;;;;;;;;;;;24.20;35.70;;;;;;1591726;73;735;-72
2022/02/20 10:38:26;;;;;;;;;;;24.20;36.00;;;;;;1591035;73;1688;-72
2022/02/20 10:40:29;;;;;;;;;;;24.20;35.90;;;;;;1591433;73;770;-73
2022/02/20 10:42:32;;;;;;;;;;;24.20;35.80;;;;;;1591353;73;1122;-72
2022/02/20 10:44:34;;;;;;;;;;;24.10;36.00;;;;;;1591326;73;1933;-71
2022/02/20 10:46:36;;;;;;;;;;;24.10;35.70;;;;;;1573784;74;980;-72
2022/02/20 10:48:42;;;;;;;;;;;24.10;35.80;;;;;;1591494;73;784;-72
2022/02/20 10:50:44;;;;;;;;;;;24.10;35.50;;;;;;1593935;73;755;-72
2022/02/20 10:52:46;;;;;;;;;;;24.00;35.10;;;;;;1591543;73;1127;-72
2022/02/20 10:55:07;;;;;;;;;;;24.00;35.30;;;;;;1591385;73;816;-74
2022/02/20 10:57:08;;;;;;;;;;;23.90;35.10;;;;;;1591876;73;715;-71
2022/02/20 10:59:10;;;;;;;;;;;24.00;35.20;;;;;;1591397;73;713;-73
2022/02/20 11:01:26;;;;;;;;;;;23.90;35.20;;;;;;1592733;72;721;-73
2022/02/20 11:03:28;;;;;;;;;;;23.90;35.30;;;;;;1591493;73;905;-72
2022/02/20 11:05:31;;;;;;;;;;;23.80;35.00;;;;;;1591337;73;1933;-72
2022/02/20 11:07:40;;;;;;;;;;;23.90;34.90;;;;;;1590696;73;761;-74
2022/02/20 11:09:39;;;;;;;;;;;23.80;34.90;;;;;;1589584;73;1247;-79
2022/02/20 11:11:47;;;;;;;;;;;23.70;35.00;;;;;;1591671;73;1146;-73
2022/02/20 11:13:46;;;;;;;;;;;23.70;35.10;;;;;;1589674;73;1591;-73
2022/02/20 11:15:48;;;;;;;;;;;23.70;35.20;;;;;;1593011;73;865;-73
2022/02/20 11:17:51;;;;;;;;;;;23.80;35.20;;;;;;1616012;73;789;-73
2022/02/20 11:19:55;;;;;;;;;;;23.70;34.90;;;;;;1597397;73;714;-74
2022/02/20 11:22:01;;;;;;;;;;;23.70;35.00;;;;;;1587688;73;1079;-74
2022/02/20 11:24:03;;;;;;;;;;;23.70;35.20;;;;;;1594530;73;1924;-73
2022/02/20 11:26:04;;;;;;;;;;;23.60;35.00;;;;;;1595236;73;656;-73
2022/02/20 11:28:06;;;;;;;;;;;23.70;35.10;;;;;;1597137;73;704;-73
2022/02/20 11:30:08;;;;;;;;;;;23.60;35.00;;;;;;1590390;73;727;-73
2022/02/20 11:32:10;;;;;;;;;;;23.60;35.20;;;;;;1592843;73;1138;-73
2022/02/20 11:34:12;;;;;;;;;;;23.60;35.10;;;;;;1590506;73;721;-73
2022/02/20 11:36:14;;;;;;;;;;;23.60;35.20;;;;;;1590340;73;789;-75
2022/02/20 11:38:17;;;;;;;;;;;23.60;35.00;;;;;;1590283;73;743;-73
2022/02/20 11:40:20;;;;;;;;;;;23.60;35.00;;;;;;1592553;73;716;-73
2022/02/20 11:42:22;;;;;;;;;;;23.60;34.90;;;;;;1596382;72;1117;-73
2022/02/20 11:44:24;;;;;;;;;;;23.60;35.00;;;;;;1590213;73;1937;-73
2022/02/20 11:46:26;;;;;;;;;;;23.60;35.00;;;;;;1590337;73;719;-73
2022/02/20 11:48:28;;;;;;;;;;;23.60;34.50;;;;;;1590276;73;776;-73
2022/02/20 11:50:33;;;;;;;;;;;23.50;34.60;;;;;;1591399;73;739;-73
2022/02/20 11:52:54;;;;;;;;;;;23.50;35.00;;;;;;1592522;72;1533;-73
2022/02/20 11:54:58;;;;;;;;;;;23.50;35.00;;;;;;1594291;73;1776;-72
2022/02/20 11:57:24;;;;;;;;;;;23.50;34.90;;;;;;1590422;73;758;-73
2022/02/20 11:59:20;;;;;;;;;;;23.50;34.80;;;;;;1589278;73;1510;-73
2022/02/20 12:01:22;;;;;;;;;;;23.40;34.60;;;;;;1590563;73;1133;-73
2022/02/20 12:03:24;;;;;;;;;;;23.40;34.70;;;;;;1590667;73;802;-73
2022/02/20 12:05:26;;;;;;;;;;;23.40;34.70;;;;;;1590413;73;1933;-73
2022/02/20 12:07:28;;;;;;;;;;;23.40;34.80;;;;;;1593709;73;676;-72
2022/02/20 12:09:30;;;;;;;;;;;23.50;34.60;;;;;;1600931;73;754;-73